createdAt,value
2023-05-16T00:00:15.820Z,40433.84
2023-05-16T00:02:42.474Z,40459.78
2023-05-16T00:05:10.659Z,40445.81
2023-05-16T00:07:37.124Z,40429.84
2023-05-16T00:10:03.701Z,40441.84
2023-05-16T00:12:30.387Z,40437.84
2023-05-16T00:14:57.388Z,40467.78
2023-05-16T00:17:23.885Z,40427.88
2023-05-16T00:19:58.051Z,40445.81
2023-05-16T00:22:25.442Z,40495.72
2023-05-16T00:24:51.918Z,40473.75
2023-05-16T00:27:18.422Z,40505.69
2023-05-16T00:29:44.891Z,40539.59
2023-05-16T00:32:11.869Z,40505.69
2023-05-16T00:34:39.300Z,40517.66
2023-05-16T00:37:06.130Z,40517.66
2023-05-16T00:39:32.590Z,40521.66
2023-05-16T00:41:59.019Z,40513.66
2023-05-16T00:44:25.617Z,40527.63
2023-05-16T00:46:52.559Z,40561.56
2023-05-16T00:49:19.352Z,40549.59
2023-05-16T00:51:45.876Z,40569.53
2023-05-16T00:54:12.833Z,40585.50
2023-05-16T00:56:40.270Z,40589.50
2023-05-16T00:59:06.811Z,40499.69
2023-05-16T01:01:34.387Z,40477.75
2023-05-16T01:04:01.128Z,40513.66
2023-05-16T01:06:28.338Z,40521.66
2023-05-16T01:08:54.743Z,40525.63
2023-05-16T01:11:51.903Z,40485.72
2023-05-16T01:14:34.867Z,40455.81
2023-05-16T01:17:16.464Z,40381.97
2023-05-16T01:20:15.716Z,40362.00
2023-05-16T01:22:52.660Z,40356.03
2023-05-16T01:25:46.224Z,40308.13
2023-05-16T01:28:16.797Z,40290.19
2023-05-16T01:30:43.335Z,40298.16
2023-05-16T01:33:10.347Z,40278.22
2023-05-16T01:35:54.256Z,40286.19
2023-05-16T01:38:29.234Z,40310.13
2023-05-16T01:41:07.129Z,40236.31
2023-05-16T01:43:36.918Z,40174.44
2023-05-16T01:46:10.343Z,40218.34
2023-05-16T01:48:48.782Z,40226.31
2023-05-16T01:51:15.573Z,40250.28
2023-05-16T01:53:45.231Z,40156.50
2023-05-16T01:56:16.758Z,40152.50
2023-05-16T01:58:47.010Z,40138.53
2023-05-16T02:01:13.669Z,40114.59
2023-05-16T02:03:40.385Z,40082.66
2023-05-16T02:06:07.319Z,40066.69
2023-05-16T02:08:34.043Z,40058.72
2023-05-16T02:11:00.632Z,40050.75
2023-05-16T02:13:27.004Z,40058.72
2023-05-16T02:15:53.510Z,40036.78
2023-05-16T02:18:19.992Z,39998.88
2023-05-16T02:20:46.422Z,39986.91
2023-05-16T02:23:13.872Z,39950.97
2023-05-16T02:25:40.352Z,40002.84
2023-05-16T02:28:09.978Z,39996.88
2023-05-16T02:30:36.463Z,39990.88
2023-05-16T02:33:02.926Z,39954.97
2023-05-16T02:35:30.089Z,39907.09
2023-05-16T02:37:57.164Z,39907.09
2023-05-16T02:40:24.607Z,39879.16
2023-05-16T02:42:51.092Z,39881.16
2023-05-16T02:45:17.593Z,39899.09
2023-05-16T02:47:43.999Z,39887.13
2023-05-16T02:50:10.859Z,39927.03
2023-05-16T02:52:37.318Z,39941.00
2023-05-16T02:55:20.986Z,39873.16
2023-05-16T02:57:48.761Z,39931.03
2023-05-16T03:00:17.749Z,39950.97
2023-05-16T03:02:45.429Z,39907.09
2023-05-16T03:05:11.990Z,39831.28
2023-05-16T03:07:38.822Z,39823.28
2023-05-16T03:10:06.034Z,39775.41
2023-05-16T03:12:32.519Z,39767.44
2023-05-16T03:14:59.368Z,39743.50
2023-05-16T03:17:26.045Z,39717.56
2023-05-16T03:19:52.707Z,39707.56
2023-05-16T03:22:19.167Z,39639.75
2023-05-16T03:24:45.687Z,39649.72
2023-05-16T03:27:12.200Z,39607.84
2023-05-16T03:29:38.651Z,39659.69
2023-05-16T03:32:06.035Z,39609.81
2023-05-16T03:34:32.709Z,39641.75
2023-05-16T03:36:59.206Z,39659.69
2023-05-16T03:39:25.662Z,39643.75
2023-05-16T03:41:52.204Z,39639.75
2023-05-16T03:44:18.995Z,39623.78
2023-05-16T03:46:45.400Z,39603.84
2023-05-16T03:49:11.807Z,39575.91
2023-05-16T03:51:38.192Z,39559.94
2023-05-16T03:54:04.727Z,39579.91
2023-05-16T03:56:31.537Z,39551.97
2023-05-16T03:58:58.277Z,39540.00
2023-05-16T04:01:24.706Z,39528.03
2023-05-16T04:03:51.356Z,39528.03
2023-05-16T04:06:17.874Z,39506.09
2023-05-16T04:08:44.874Z,39524.03
2023-05-16T04:11:11.575Z,39532.03
2023-05-16T04:13:38.046Z,39547.97
2023-05-16T04:16:05.168Z,39549.97
2023-05-16T04:18:31.578Z,39567.94
2023-05-16T04:20:58.017Z,39589.88
2023-05-16T04:23:24.556Z,39551.97
2023-05-16T04:25:50.932Z,39524.03
2023-05-16T04:28:18.026Z,39528.03
2023-05-16T04:30:44.444Z,39520.06
2023-05-16T04:33:10.929Z,39520.06
2023-05-16T04:35:37.614Z,39512.06
2023-05-16T04:38:04.650Z,39506.09
2023-05-16T04:40:31.460Z,39510.06
2023-05-16T04:42:57.951Z,39508.09
2023-05-16T04:45:24.550Z,39502.09
2023-05-16T04:47:52.199Z,39518.06
2023-05-16T04:50:18.633Z,39516.06
2023-05-16T04:52:45.033Z,39508.09
2023-05-16T04:55:11.701Z,39500.09
2023-05-16T04:57:38.130Z,39528.03
2023-05-16T05:00:07.946Z,39557.97
2023-05-16T05:02:34.426Z,39575.91
2023-05-16T05:05:00.988Z,39563.94
2023-05-16T05:07:29.053Z,39547.97
2023-05-16T05:09:58.644Z,39528.03
2023-05-16T05:12:25.380Z,39528.03
2023-05-16T05:14:51.824Z,39520.06
2023-05-16T05:17:20.024Z,39518.06
2023-05-16T05:19:47.113Z,39510.06
2023-05-16T05:22:14.223Z,39528.03
2023-05-16T05:24:40.773Z,39547.97
2023-05-16T05:27:07.402Z,39532.03
2023-05-16T05:29:33.851Z,39528.03
2023-05-16T05:32:00.266Z,39528.03
2023-05-16T05:34:26.645Z,39540.00
2023-05-16T05:36:53.045Z,39508.09
2023-05-16T05:39:19.522Z,39569.94
2023-05-16T05:41:46.022Z,39534.00
2023-05-16T05:44:12.504Z,39575.91
2023-05-16T05:46:39.487Z,39585.88
2023-05-16T05:49:06.144Z,39540.00
2023-05-16T05:51:32.770Z,39555.97
2023-05-16T05:53:59.885Z,39555.97
2023-05-16T05:56:26.871Z,39567.94
2023-05-16T05:58:54.423Z,39510.06
2023-05-16T06:01:21.266Z,39534.00
2023-05-16T06:03:47.994Z,39540.00
2023-05-16T06:06:15.102Z,39520.06
2023-05-16T06:08:41.611Z,39484.16
2023-05-16T06:11:08.707Z,39532.03
2023-05-16T06:13:35.363Z,39540.00
2023-05-16T06:16:01.742Z,39571.91
2023-05-16T06:18:28.185Z,39524.03
2023-05-16T06:20:54.588Z,39528.03
2023-05-16T06:23:22.247Z,39549.97
2023-05-16T06:25:48.745Z,39532.03
2023-05-16T06:28:15.220Z,39516.06
2023-05-16T06:30:41.641Z,39504.09
2023-05-16T06:33:08.123Z,39504.09
2023-05-16T06:35:34.530Z,39462.19
2023-05-16T06:38:01.129Z,39440.25
2023-05-16T06:40:27.558Z,39416.31
2023-05-16T06:42:54.490Z,39400.34
2023-05-16T06:45:21.453Z,39416.31
2023-05-16T06:47:48.314Z,39420.31
2023-05-16T06:50:14.801Z,39414.31
2023-05-16T06:52:42.081Z,39380.41
2023-05-16T06:55:09.302Z,39320.56
2023-05-16T06:57:35.925Z,39352.47
2023-05-16T07:00:02.740Z,39346.50
2023-05-16T07:02:29.414Z,39330.53
2023-05-16T07:04:55.936Z,39340.50
2023-05-16T07:07:22.659Z,39254.75
2023-05-16T07:09:49.624Z,39214.84
2023-05-16T07:12:16.375Z,39252.75
2023-05-16T07:14:43.545Z,39218.84
2023-05-16T07:17:12.775Z,39200.88
2023-05-16T07:19:39.273Z,39204.88
2023-05-16T07:22:05.843Z,39208.84
2023-05-16T07:24:32.555Z,39161.00
2023-05-16T07:26:59.313Z,39153.00
2023-05-16T07:29:27.158Z,39139.03
2023-05-16T07:31:53.820Z,39137.06
2023-05-16T07:34:20.644Z,39153.00
2023-05-16T07:36:47.288Z,39077.22
2023-05-16T07:39:14.542Z,39053.28
2023-05-16T07:41:41.055Z,39039.31
2023-05-16T07:44:07.481Z,39045.28
2023-05-16T07:46:34.076Z,39029.34
2023-05-16T07:49:01.209Z,39057.25
2023-05-16T07:51:28.762Z,39013.38
2023-05-16T07:53:55.490Z,38961.53
2023-05-16T07:56:22.599Z,38937.59
2023-05-16T07:58:49.091Z,38913.66
2023-05-16T08:01:15.552Z,38943.56
2023-05-16T08:03:42.109Z,38905.66
2023-05-16T08:06:08.815Z,38897.69
2023-05-16T08:08:35.385Z,38837.84
2023-05-16T08:11:01.856Z,38825.91
2023-05-16T08:13:28.289Z,38839.84
2023-05-16T08:15:54.829Z,38843.84
2023-05-16T08:18:22.635Z,38857.81
2023-05-16T08:20:49.995Z,38837.84
2023-05-16T08:23:16.477Z,38859.81
2023-05-16T08:25:43.289Z,38845.84
2023-05-16T08:28:10.392Z,38835.88
2023-05-16T08:30:36.903Z,38849.81
2023-05-16T08:33:05.053Z,38817.91
2023-05-16T08:35:31.905Z,38809.94
2023-05-16T08:37:58.392Z,38885.72
2023-05-16T08:40:28.489Z,38875.75
2023-05-16T08:42:56.036Z,38889.72
2023-05-16T08:45:23.543Z,38889.72
2023-05-16T08:47:51.644Z,38879.75
2023-05-16T08:50:18.476Z,38945.56
2023-05-16T08:52:47.820Z,38935.59
2023-05-16T08:55:16.033Z,38899.69
2023-05-16T08:57:44.150Z,38869.78
2023-05-16T09:00:14.435Z,38778.03
2023-05-16T09:02:42.707Z,38744.13
2023-05-16T09:05:11.946Z,38758.06
2023-05-16T09:07:38.620Z,38774.03
2023-05-16T09:10:07.006Z,38790.00
2023-05-16T09:12:34.173Z,38734.16
2023-05-16T09:15:03.679Z,38696.25
2023-05-16T09:17:45.161Z,38664.34
2023-05-16T09:20:21.611Z,38668.31
2023-05-16T09:22:57.501Z,38674.31
2023-05-16T09:27:56.858Z,38690.28
2023-05-16T09:30:27.590Z,38714.19
2023-05-16T09:32:54.250Z,38740.13
2023-05-16T09:35:35.131Z,38778.03
2023-05-16T09:38:14.717Z,38817.91
2023-05-16T09:40:44.271Z,38835.88
2023-05-16T09:43:10.838Z,38774.03
2023-05-16T09:45:37.864Z,38678.31
2023-05-16T09:48:06.941Z,38638.41
2023-05-16T09:50:35.251Z,38684.28
2023-05-16T09:53:02.344Z,38746.13
2023-05-16T09:55:29.215Z,38750.09
2023-05-16T09:57:56.408Z,38766.06
2023-05-16T10:00:29.527Z,38734.16
2023-05-16T10:02:57.829Z,38718.19
2023-05-16T10:05:27.667Z,38720.19
2023-05-16T10:07:56.615Z,38758.06
2023-05-16T10:10:24.359Z,38782.00
2023-05-16T10:12:52.197Z,38714.19
2023-05-16T10:15:20.013Z,38666.34
2023-05-16T10:17:52.722Z,38638.41
2023-05-16T10:20:21.051Z,38642.41
2023-05-16T10:22:50.143Z,38656.38
2023-05-16T10:25:29.008Z,38682.28
2023-05-16T10:27:56.270Z,38718.19
2023-05-16T10:30:22.741Z,38704.22
2023-05-16T10:32:51.364Z,38642.41
2023-05-16T10:35:17.891Z,38646.38
2023-05-16T10:37:44.804Z,38622.47
2023-05-16T10:40:12.617Z,38702.22
2023-05-16T10:42:39.048Z,38678.31
2023-05-16T10:45:21.464Z,38662.34
2023-05-16T10:47:56.202Z,38730.16
2023-05-16T10:50:39.663Z,38724.16
2023-05-16T10:53:23.354Z,38696.25
2023-05-16T10:55:51.271Z,38728.16
2023-05-16T10:58:44.637Z,38756.09
2023-05-16T11:01:25.473Z,38716.19
2023-05-16T11:04:01.687Z,38734.16
2023-05-16T11:06:43.348Z,38686.28
2023-05-16T11:09:13.628Z,38630.44
2023-05-16T11:11:41.071Z,38462.91
2023-05-16T11:14:08.113Z,38486.84
2023-05-16T11:16:36.088Z,38448.94
2023-05-16T11:19:07.105Z,38442.97
2023-05-16T11:22:04.804Z,38458.91
2023-05-16T11:24:32.269Z,38450.94
2023-05-16T11:27:04.063Z,38444.97
2023-05-16T11:29:35.612Z,38462.91
2023-05-16T11:32:04.898Z,38450.94
2023-05-16T11:34:35.777Z,38476.88
2023-05-16T11:37:05.083Z,38586.56
2023-05-16T11:39:32.642Z,38590.56
2023-05-16T11:41:59.352Z,38608.50
2023-05-16T11:44:26.352Z,38658.34
2023-05-16T11:46:52.895Z,38642.41
2023-05-16T11:49:19.691Z,38702.22
2023-05-16T11:51:46.679Z,38650.38
2023-05-16T11:54:13.628Z,38793.97
2023-05-16T11:56:41.231Z,38873.75
2023-05-16T11:59:07.879Z,38899.69
2023-05-16T12:01:39.137Z,38839.84
2023-05-16T12:04:16.117Z,38901.69
2023-05-16T12:06:44.443Z,38869.78
2023-05-16T12:09:18.196Z,38857.81
2023-05-16T12:11:45.243Z,38646.38
2023-05-16T12:14:13.792Z,38474.88
2023-05-16T12:16:43.958Z,38383.13
2023-05-16T12:19:11.467Z,38403.09
2023-05-16T12:21:38.685Z,38365.19
2023-05-16T12:24:05.436Z,38319.31
2023-05-16T12:26:33.509Z,38175.75
2023-05-16T12:29:03.351Z,38147.81
2023-05-16T12:31:32.479Z,37966.38
2023-05-16T12:33:59.703Z,38064.06
2023-05-16T12:36:26.374Z,38046.13
2023-05-16T12:38:53.835Z,37968.38
2023-05-16T12:41:23.772Z,37838.75
2023-05-16T12:43:53.538Z,37749.03
2023-05-16T12:46:20.019Z,37766.97
2023-05-16T12:48:47.942Z,37780.94
2023-05-16T12:51:16.976Z,37798.88
2023-05-16T12:53:54.347Z,37808.84
2023-05-16T12:56:28.352Z,37844.75
2023-05-16T12:58:55.227Z,37878.63
2023-05-16T13:01:21.713Z,37832.78
2023-05-16T13:03:48.706Z,37772.97
2023-05-16T13:06:15.302Z,37689.22
2023-05-16T13:08:42.141Z,37621.44
2023-05-16T13:11:08.563Z,37577.56
2023-05-16T13:13:36.693Z,37589.53
2023-05-16T13:16:04.262Z,37364.25
2023-05-16T13:18:31.362Z,37408.09
2023-05-16T13:20:58.043Z,37392.16
2023-05-16T13:23:25.340Z,37390.16
2023-05-16T13:25:53.208Z,37250.59
2023-05-16T13:28:19.694Z,37338.31
2023-05-16T13:30:46.734Z,37394.13
2023-05-16T13:33:13.228Z,37469.91
2023-05-16T13:35:39.787Z,37445.97
2023-05-16T13:38:06.215Z,37461.94
2023-05-16T13:40:32.817Z,37374.22
2023-05-16T13:43:00.896Z,37358.25
2023-05-16T13:45:29.185Z,37398.13
2023-05-16T13:47:55.845Z,37244.63
2023-05-16T13:50:22.330Z,37212.72
2023-05-16T13:52:48.799Z,37268.53
2023-05-16T13:55:15.572Z,37330.34
2023-05-16T13:57:41.999Z,37402.13
2023-05-16T14:02:42.843Z,37422.06
2023-05-16T14:05:10.156Z,37370.22
2023-05-16T14:07:36.661Z,37410.09
2023-05-16T14:10:04.073Z,37334.34
2023-05-16T14:12:31.079Z,37280.50
2023-05-16T14:14:57.589Z,37198.78
2023-05-16T14:17:24.023Z,37190.78
2023-05-16T14:19:50.564Z,37182.81
2023-05-16T14:22:18.819Z,37174.84
2023-05-16T14:24:45.271Z,37166.88
2023-05-16T14:27:12.124Z,37148.94
2023-05-16T14:29:38.579Z,37134.97
2023-05-16T14:32:05.482Z,37170.84
2023-05-16T14:34:32.686Z,37162.88
2023-05-16T14:36:59.168Z,37162.88
2023-05-16T14:39:27.300Z,37123.00
2023-05-16T14:41:53.854Z,37119.03
2023-05-16T14:44:21.683Z,37067.19
2023-05-16T14:46:48.638Z,37107.06
2023-05-16T14:49:15.299Z,37091.13
2023-05-16T14:51:44.797Z,37079.16
2023-05-16T14:54:11.236Z,37075.16
2023-05-16T14:56:37.634Z,37021.34
2023-05-16T14:59:04.081Z,37011.38
2023-05-16T15:01:30.885Z,36983.47
2023-05-16T15:03:57.411Z,36975.50
2023-05-16T15:06:24.732Z,36971.50
2023-05-16T15:08:51.392Z,37023.34
2023-05-16T15:11:17.839Z,36981.47
2023-05-16T15:13:44.471Z,36953.56
2023-05-16T15:16:11.103Z,37021.34
2023-05-16T15:18:37.760Z,37031.31
2023-05-16T15:21:04.307Z,36995.44
2023-05-16T15:23:30.826Z,37017.38
2023-05-16T15:25:57.934Z,36971.50
2023-05-16T15:28:24.389Z,37003.41
2023-05-16T15:30:51.514Z,37019.34
2023-05-16T15:33:18.358Z,36983.47
2023-05-16T15:35:45.114Z,37027.31
2023-05-16T15:38:11.619Z,36995.44
2023-05-16T15:40:38.048Z,36999.41
2023-05-16T15:43:04.592Z,37001.41
2023-05-16T15:45:32.264Z,37019.34
2023-05-16T15:47:58.999Z,36987.47
2023-05-16T15:50:25.568Z,37001.41
2023-05-16T15:52:52.024Z,37033.31
2023-05-16T15:55:18.664Z,36995.44
2023-05-16T15:57:45.092Z,37051.25
2023-05-16T16:00:12.270Z,37083.16
2023-05-16T16:02:39.987Z,37089.13
2023-05-16T16:05:07.069Z,37111.06
2023-05-16T16:07:33.492Z,37091.13
2023-05-16T16:10:00.167Z,37091.13
2023-05-16T16:12:29.588Z,37087.13
2023-05-16T16:14:56.028Z,37065.19
2023-05-16T16:17:22.484Z,37033.31
2023-05-16T16:19:48.959Z,37079.16
2023-05-16T16:22:16.676Z,37059.22
2023-05-16T16:24:43.127Z,37127.00
2023-05-16T16:27:09.730Z,37073.19
2023-05-16T16:29:36.752Z,37055.25
2023-05-16T16:32:03.210Z,37063.22
2023-05-16T16:34:29.630Z,37087.13
2023-05-16T16:36:56.307Z,37109.06
2023-05-16T16:39:22.801Z,37103.09
2023-05-16T16:41:49.738Z,37055.25
2023-05-16T16:44:16.168Z,37075.16
2023-05-16T16:46:42.852Z,37053.25
2023-05-16T16:49:09.463Z,37073.19
2023-05-16T16:51:36.359Z,37063.22
2023-05-16T16:54:02.879Z,37079.16
2023-05-16T16:56:30.000Z,37083.16
2023-05-16T16:58:56.492Z,37119.03
2023-05-16T17:01:23.020Z,37107.06
2023-05-16T17:03:49.664Z,37087.13
2023-05-16T17:06:16.152Z,37071.19
2023-05-16T17:08:43.307Z,37067.19
2023-05-16T17:11:09.726Z,37069.19
2023-05-16T17:13:37.513Z,37067.19
2023-05-16T17:16:04.581Z,37037.28
2023-05-16T17:18:34.690Z,37015.38
2023-05-16T17:21:01.504Z,37015.38
2023-05-16T17:23:28.036Z,37037.28
2023-05-16T17:25:54.457Z,37031.31
2023-05-16T17:28:20.907Z,37033.31
2023-05-16T17:30:47.338Z,37035.31
2023-05-16T17:33:14.102Z,37051.25
2023-05-16T17:35:40.971Z,36991.44
2023-05-16T17:38:07.711Z,37029.31
2023-05-16T17:40:34.205Z,36991.44
2023-05-16T17:43:00.622Z,36987.47
2023-05-16T17:45:27.361Z,37005.41
2023-05-16T17:47:54.153Z,37011.38
2023-05-16T17:50:21.866Z,36983.47
2023-05-16T17:52:48.430Z,37031.31
2023-05-16T17:55:14.963Z,37015.38
2023-05-16T17:57:41.451Z,37047.25
2023-05-16T18:00:09.152Z,37019.34
2023-05-16T18:02:38.686Z,37011.38
2023-05-16T18:05:06.693Z,37031.31
2023-05-16T18:07:33.863Z,37039.28
2023-05-16T18:10:00.312Z,37009.38
2023-05-16T18:12:27.237Z,37011.38
2023-05-16T18:14:53.694Z,37031.31
2023-05-16T18:17:20.559Z,37001.41
2023-05-16T18:19:47.230Z,37011.38
2023-05-16T18:22:13.830Z,36991.44
2023-05-16T18:24:40.755Z,37015.38
2023-05-16T18:27:07.280Z,37021.34
2023-05-16T18:29:34.337Z,37015.38
2023-05-16T18:32:01.667Z,37023.34
2023-05-16T18:34:28.267Z,37015.38
2023-05-16T18:36:54.743Z,37003.41
2023-05-16T18:39:21.236Z,37013.38
2023-05-16T18:41:48.374Z,37039.28
2023-05-16T18:44:18.254Z,36999.41
2023-05-16T18:46:48.638Z,37015.38
2023-05-16T18:49:15.176Z,37045.28
2023-05-16T18:51:41.689Z,37031.31
2023-05-16T18:54:08.378Z,37037.28
2023-05-16T18:56:35.115Z,37047.25
2023-05-16T18:59:01.543Z,37035.31
2023-05-16T19:01:28.410Z,37035.31
2023-05-16T19:03:55.627Z,37027.31
2023-05-16T19:06:22.473Z,37027.31
2023-05-16T19:08:48.931Z,37059.22
2023-05-16T19:11:17.260Z,37043.28
2023-05-16T19:13:45.145Z,37047.25
2023-05-16T19:16:11.629Z,37107.06
2023-05-16T19:18:38.356Z,37119.03
2023-05-16T19:21:05.670Z,37131.00
2023-05-16T19:23:32.086Z,37115.03
2023-05-16T19:25:58.618Z,37127.00
2023-05-16T19:28:25.423Z,37156.91
2023-05-16T19:30:51.872Z,37166.88
2023-05-16T19:33:18.300Z,37174.84
2023-05-16T19:35:45.587Z,37186.81
2023-05-16T19:38:12.056Z,37226.69
2023-05-16T19:40:38.575Z,37218.69
2023-05-16T19:43:05.014Z,37234.66
2023-05-16T19:45:31.472Z,37170.84
2023-05-16T19:47:58.023Z,37178.84
2023-05-16T19:50:24.496Z,37222.69
2023-05-16T19:52:51.048Z,37226.69
2023-05-16T19:55:17.516Z,37236.66
2023-05-16T19:57:44.007Z,37272.53
2023-05-16T20:00:11.157Z,37268.53
2023-05-16T20:02:40.528Z,37262.56
2023-05-16T20:05:07.447Z,37250.59
2023-05-16T20:07:33.956Z,37274.53
2023-05-16T20:10:00.799Z,37248.59
2023-05-16T20:12:27.248Z,37218.69
2023-05-16T20:14:53.685Z,37242.63
2023-05-16T20:17:20.135Z,37210.72
2023-05-16T20:19:48.325Z,37210.72
2023-05-16T20:22:14.907Z,37290.47
2023-05-16T20:24:41.520Z,37290.47
2023-05-16T20:27:08.286Z,37254.59
2023-05-16T20:29:34.996Z,37298.44
2023-05-16T20:32:03.859Z,37330.34
2023-05-16T20:34:32.858Z,37326.34
2023-05-16T20:36:59.551Z,37306.41
2023-05-16T20:39:26.346Z,37346.28
2023-05-16T20:41:52.972Z,37372.22
2023-05-16T20:44:19.463Z,37382.19
2023-05-16T20:46:46.404Z,37378.19
2023-05-16T20:49:13.018Z,37346.28
2023-05-16T20:51:39.451Z,37394.13
2023-05-16T20:54:05.942Z,37378.19
2023-05-16T20:56:32.374Z,37396.13
2023-05-16T20:58:58.914Z,37398.13
2023-05-16T21:01:25.699Z,37374.22
2023-05-16T21:03:52.164Z,37358.25
2023-05-16T21:06:18.624Z,37358.25
2023-05-16T21:08:45.521Z,37332.34
2023-05-16T21:11:11.940Z,37354.28
2023-05-16T21:13:38.383Z,37330.34
2023-05-16T21:16:05.229Z,37344.31
2023-05-16T21:18:31.959Z,37338.31
2023-05-16T21:20:58.684Z,37318.38
2023-05-16T21:23:25.785Z,37324.38
2023-05-16T21:25:52.568Z,37274.53
2023-05-16T21:28:18.996Z,37288.47
2023-05-16T21:30:45.464Z,37292.47
2023-05-16T21:33:11.985Z,37320.38
2023-05-16T21:35:38.457Z,37278.50
2023-05-16T21:38:04.867Z,37264.56
2023-05-16T21:40:31.306Z,37256.59
2023-05-16T21:42:57.999Z,37262.56
2023-05-16T21:45:24.438Z,37274.53
2023-05-16T21:47:50.985Z,37252.59
2023-05-16T21:50:18.189Z,37270.53
2023-05-16T21:52:44.673Z,37254.59
2023-05-16T21:55:11.785Z,37242.63
2023-05-16T21:57:38.279Z,37256.59
2023-05-16T22:00:09.075Z,37230.66
2023-05-16T22:02:36.793Z,37252.59
2023-05-16T22:05:04.067Z,37242.63
2023-05-16T22:07:31.482Z,37246.63
2023-05-16T22:09:58.630Z,37230.66
2023-05-16T22:12:26.749Z,37238.63
2023-05-16T22:14:53.326Z,37252.59
2023-05-16T22:17:19.854Z,37266.56
2023-05-16T22:19:46.898Z,37258.56
2023-05-16T22:22:13.433Z,37214.72
2023-05-16T22:24:39.941Z,37232.66
2023-05-16T22:27:06.680Z,37242.63
2023-05-16T22:29:37.902Z,37270.53
2023-05-16T22:32:08.512Z,37242.63
2023-05-16T22:34:36.234Z,37264.56
2023-05-16T22:37:02.696Z,37230.66
2023-05-16T22:39:29.157Z,37254.59
2023-05-16T22:41:55.629Z,37270.53
2023-05-16T22:44:22.259Z,37256.59
2023-05-16T22:46:48.985Z,37242.63
2023-05-16T22:49:16.279Z,37246.63
2023-05-16T22:51:43.151Z,37246.63
2023-05-16T22:54:09.613Z,37280.50
2023-05-16T22:56:36.125Z,37250.59
2023-05-16T22:59:02.547Z,37248.59
2023-05-16T23:01:29.226Z,37262.56
2023-05-16T23:03:55.810Z,37248.59
2023-05-16T23:06:22.312Z,37262.56
2023-05-16T23:08:48.726Z,37258.56
2023-05-16T23:11:15.284Z,37286.50
2023-05-16T23:13:42.175Z,37262.56
2023-05-16T23:16:08.599Z,37246.63
2023-05-16T23:18:35.533Z,37262.56
2023-05-16T23:21:02.096Z,37280.50
2023-05-16T23:23:28.611Z,37278.50
2023-05-16T23:25:55.131Z,37238.63
2023-05-16T23:28:21.800Z,37284.50
2023-05-16T23:30:48.288Z,37278.50
2023-05-16T23:33:14.896Z,37280.50
2023-05-16T23:35:41.403Z,37326.34
2023-05-16T23:38:07.824Z,37294.47
2023-05-16T23:40:34.750Z,37338.31
2023-05-16T23:43:01.210Z,37302.44
2023-05-16T23:45:28.559Z,37318.38
2023-05-16T23:47:55.318Z,37294.47
2023-05-16T23:50:22.148Z,37300.44
2023-05-16T23:52:48.664Z,37296.44
2023-05-16T23:55:16.341Z,37326.34
2023-05-16T23:57:42.772Z,37334.34
